sensor_id;sensor_type;location;lat;lon;timestamp;pressure;altitude;pressure_sealevel;temperature;humidity
59825;BME280;45703;50.898;6.054;2022-12-10T00:01:13;99429.06;;;-0.33;98.93
59825;BME280;45703;50.898;6.054;2022-12-10T00:03:39;99429.22;;;-0.34;98.93
59825;BME280;45703;50.898;6.054;2022-12-10T00:06:07;99423.66;;;-0.31;99.11
59825;BME280;45703;50.898;6.054;2022-12-10T00:08:34;99425.91;;;-0.28;98.71
59825;BME280;45703;50.898;6.054;2022-12-10T00:11:02;99429.72;;;-0.31;98.42
59825;BME280;45703;50.898;6.054;2022-12-10T00:13:28;99429.53;;;-0.29;98.46
59825;BME280;45703;50.898;6.054;2022-12-10T00:15:53;99437.75;;;-0.32;98.69
59825;BME280;45703;50.898;6.054;2022-12-10T00:18:18;99430.50;;;-0.30;97.98
59825;BME280;45703;50.898;6.054;2022-12-10T00:20:44;99433.84;;;-0.36;98.12
59825;BME280;45703;50.898;6.054;2022-12-10T00:23:09;99431.69;;;-0.33;98.39
59825;BME280;45703;50.898;6.054;2022-12-10T00:25:34;99439.91;;;-0.36;98.04
59825;BME280;45703;50.898;6.054;2022-12-10T00:28:00;99427.78;;;-0.37;98.13
59825;BME280;45703;50.898;6.054;2022-12-10T00:30:25;99429.28;;;-0.42;98.19
59825;BME280;45703;50.898;6.054;2022-12-10T00:32:51;99431.91;;;-0.42;98.41
59825;BME280;45703;50.898;6.054;2022-12-10T00:35:16;99433.06;;;-0.45;98.66
59825;BME280;45703;50.898;6.054;2022-12-10T00:37:42;99432.19;;;-0.37;98.33
59825;BME280;45703;50.898;6.054;2022-12-10T00:40:08;99429.81;;;-0.47;98.32
59825;BME280;45703;50.898;6.054;2022-12-10T00:42:34;99433.88;;;-0.44;98.99
59825;BME280;45703;50.898;6.054;2022-12-10T00:44:59;99439.03;;;-0.28;98.59
59825;BME280;45703;50.898;6.054;2022-12-10T00:47:25;99437.09;;;-0.34;98.44
59825;BME280;45703;50.898;6.054;2022-12-10T00:49:50;99434.03;;;-0.38;98.18
59825;BME280;45703;50.898;6.054;2022-12-10T00:52:15;99437.28;;;-0.36;98.25
59825;BME280;45703;50.898;6.054;2022-12-10T00:54:41;99432.84;;;-0.35;98.42
59825;BME280;45703;50.898;6.054;2022-12-10T00:57:07;99422.44;;;-0.51;98.35
59825;BME280;45703;50.898;6.054;2022-12-10T00:59:32;99419.44;;;-0.40;98.40
59825;BME280;45703;50.898;6.054;2022-12-10T01:01:57;99427.25;;;-0.32;97.99
59825;BME280;45703;50.898;6.054;2022-12-10T01:04:23;99428.88;;;-0.31;98.00
59825;BME280;45703;50.898;6.054;2022-12-10T01:06:50;99433.19;;;-0.38;97.99
59825;BME280;45703;50.898;6.054;2022-12-10T01:09:19;99439.72;;;-0.34;97.45
59825;BME280;45703;50.898;6.054;2022-12-10T01:11:46;99435.50;;;-0.43;98.14
59825;BME280;45703;50.898;6.054;2022-12-10T01:14:15;99422.16;;;-0.56;98.97
59825;BME280;45703;50.898;6.054;2022-12-10T01:16:43;99429.81;;;-0.55;98.71
59825;BME280;45703;50.898;6.054;2022-12-10T01:19:09;99432.59;;;-0.48;98.65
59825;BME280;45703;50.898;6.054;2022-12-10T01:21:35;99431.28;;;-0.52;98.79
59825;BME280;45703;50.898;6.054;2022-12-10T01:24:04;99438.09;;;-0.35;98.44
59825;BME280;45703;50.898;6.054;2022-12-10T01:26:32;99445.53;;;-0.47;98.63
59825;BME280;45703;50.898;6.054;2022-12-10T01:28:58;99446.97;;;-0.44;98.52
59825;BME280;45703;50.898;6.054;2022-12-10T01:31:26;99434.22;;;-0.47;98.39
59825;BME280;45703;50.898;6.054;2022-12-10T01:33:51;99433.66;;;-0.65;98.35
59825;BME280;45703;50.898;6.054;2022-12-10T01:36:21;99455.53;;;-0.50;98.74
59825;BME280;45703;50.898;6.054;2022-12-10T01:38:47;99447.06;;;-0.60;98.87
59825;BME280;45703;50.898;6.054;2022-12-10T01:41:25;99457.84;;;-0.55;99.35
59825;BME280;45703;50.898;6.054;2022-12-10T01:46:30;99466.31;;;-0.45;99.93
59825;BME280;45703;50.898;6.054;2022-12-10T01:48:58;99467.66;;;-0.49;99.51
59825;BME280;45703;50.898;6.054;2022-12-10T01:51:25;99463.00;;;-0.39;99.34
59825;BME280;45703;50.898;6.054;2022-12-10T01:53:51;99478.63;;;-0.46;99.05
59825;BME280;45703;50.898;6.054;2022-12-10T01:56:18;99477.09;;;-0.40;99.04
59825;BME280;45703;50.898;6.054;2022-12-10T01:58:44;99474.38;;;-0.47;98.59
59825;BME280;45703;50.898;6.054;2022-12-10T02:04:04;99488.00;;;-0.59;98.98
59825;BME280;45703;50.898;6.054;2022-12-10T02:06:54;99484.03;;;-0.47;99.37
59825;BME280;45703;50.898;6.054;2022-12-10T02:09:38;99481.09;;;-0.52;99.23
59825;BME280;45703;50.898;6.054;2022-12-10T02:12:25;99490.78;;;-0.61;99.57
59825;BME280;45703;50.898;6.054;2022-12-10T02:15:02;99485.38;;;-0.59;99.10
59825;BME280;45703;50.898;6.054;2022-12-10T02:17:42;99484.44;;;-0.66;99.44
59825;BME280;45703;50.898;6.054;2022-12-10T02:23:04;99486.72;;;-0.63;99.44
59825;BME280;45703;50.898;6.054;2022-12-10T02:25:50;99482.41;;;-0.56;99.47
59825;BME280;45703;50.898;6.054;2022-12-10T02:29:15;99463.81;;;-0.69;99.81
59825;BME280;45703;50.898;6.054;2022-12-10T02:31:18;99479.19;;;-0.66;99.93
59825;BME280;45703;50.898;6.054;2022-12-10T02:33:50;99478.19;;;-0.65;100.00
59825;BME280;45703;50.898;6.054;2022-12-10T02:36:18;99485.06;;;-0.64;100.00
59825;BME280;45703;50.898;6.054;2022-12-10T02:38:47;99470.50;;;-0.67;100.00
59825;BME280;45703;50.898;6.054;2022-12-10T02:41:20;99470.16;;;-0.64;100.00
59825;BME280;45703;50.898;6.054;2022-12-10T02:43:50;99465.75;;;-0.63;100.00
59825;BME280;45703;50.898;6.054;2022-12-10T02:46:17;99473.88;;;-0.50;100.00
59825;BME280;45703;50.898;6.054;2022-12-10T02:48:45;99471.75;;;-0.55;100.00
59825;BME280;45703;50.898;6.054;2022-12-10T02:51:11;99480.59;;;-0.48;100.00
59825;BME280;45703;50.898;6.054;2022-12-10T02:53:44;99484.38;;;-0.50;100.00
59825;BME280;45703;50.898;6.054;2022-12-10T02:58:42;99477.63;;;-0.45;100.00
59825;BME280;45703;50.898;6.054;2022-12-10T03:04:04;99486.16;;;-0.43;100.00
59825;BME280;45703;50.898;6.054;2022-12-10T03:06:39;99487.13;;;-0.44;100.00
59825;BME280;45703;50.898;6.054;2022-12-10T03:09:11;99493.34;;;-0.37;100.00
59825;BME280;45703;50.898;6.054;2022-12-10T03:11:39;99488.88;;;-0.36;100.00
59825;BME280;45703;50.898;6.054;2022-12-10T03:14:26;99495.47;;;-0.40;100.00
59825;BME280;45703;50.898;6.054;2022-12-10T03:16:58;99492.84;;;-0.40;100.00
59825;BME280;45703;50.898;6.054;2022-12-10T03:19:33;99487.97;;;-0.51;100.00
59825;BME280;45703;50.898;6.054;2022-12-10T03:22:02;99500.41;;;-0.45;100.00
59825;BME280;45703;50.898;6.054;2022-12-10T03:24:28;99492.53;;;-0.45;100.00
59825;BME280;45703;50.898;6.054;2022-12-10T03:26:57;99495.16;;;-0.45;100.00
59825;BME280;45703;50.898;6.054;2022-12-10T03:29:32;99493.03;;;-0.42;100.00
59825;BME280;45703;50.898;6.054;2022-12-10T03:31:59;99491.53;;;-0.44;100.00
59825;BME280;45703;50.898;6.054;2022-12-10T03:34:25;99490.75;;;-0.45;100.00
59825;BME280;45703;50.898;6.054;2022-12-10T03:36:51;99499.22;;;-0.35;100.00
59825;BME280;45703;50.898;6.054;2022-12-10T03:39:17;99490.22;;;-0.40;100.00
59825;BME280;45703;50.898;6.054;2022-12-10T03:41:42;99498.72;;;-0.38;100.00
59825;BME280;45703;50.898;6.054;2022-12-10T03:44:08;99497.09;;;-0.39;100.00
59825;BME280;45703;50.898;6.054;2022-12-10T03:46:33;99487.91;;;-0.35;100.00
59825;BME280;45703;50.898;6.054;2022-12-10T03:49:00;99484.81;;;-0.39;100.00
59825;BME280;45703;50.898;6.054;2022-12-10T03:51:25;99492.13;;;-0.26;100.00
59825;BME280;45703;50.898;6.054;2022-12-10T03:53:51;99499.53;;;-0.30;99.71
59825;BME280;45703;50.898;6.054;2022-12-10T03:56:17;99483.34;;;-0.41;99.79
59825;BME280;45703;50.898;6.054;2022-12-10T03:58:43;99473.53;;;-0.47;99.61
59825;BME280;45703;50.898;6.054;2022-12-10T04:01:09;99488.19;;;-0.30;99.74
59825;BME280;45703;50.898;6.054;2022-12-10T04:03:39;99484.59;;;-0.29;99.48
59825;BME280;45703;50.898;6.054;2022-12-10T04:06:07;99496.72;;;-0.28;99.04
59825;BME280;45703;50.898;6.054;2022-12-10T04:08:33;99499.03;;;-0.33;99.34
59825;BME280;45703;50.898;6.054;2022-12-10T04:11:07;99488.44;;;-0.40;99.63
59825;BME280;45703;50.898;6.054;2022-12-10T04:13:33;99493.00;;;-0.34;99.86
59825;BME280;45703;50.898;6.054;2022-12-10T04:16:17;99498.22;;;-0.34;99.76
59825;BME280;45703;50.898;6.054;2022-12-10T04:18:58;99496.41;;;-0.33;99.79
59825;BME280;45703;50.898;6.054;2022-12-10T04:21:24;99501.00;;;-0.35;99.94
59825;BME280;45703;50.898;6.054;2022-12-10T04:24:09;99507.53;;;-0.31;99.94
59825;BME280;45703;50.898;6.054;2022-12-10T04:26:55;99493.16;;;-0.35;99.95
59825;BME280;45703;50.898;6.054;2022-12-10T04:29:23;99507.53;;;-0.31;99.85
59825;BME280;45703;50.898;6.054;2022-12-10T04:31:49;99504.28;;;-0.33;100.00
59825;BME280;45703;50.898;6.054;2022-12-10T04:34:14;99506.56;;;-0.30;100.00
59825;BME280;45703;50.898;6.054;2022-12-10T04:36:40;99500.66;;;-0.32;99.72
59825;BME280;45703;50.898;6.054;2022-12-10T04:39:05;99511.16;;;-0.32;99.88
59825;BME280;45703;50.898;6.054;2022-12-10T04:41:31;99508.22;;;-0.37;99.98
59825;BME280;45703;50.898;6.054;2022-12-10T04:43:57;99513.13;;;-0.34;100.00
59825;BME280;45703;50.898;6.054;2022-12-10T04:46:22;99501.81;;;-0.27;100.00
59825;BME280;45703;50.898;6.054;2022-12-10T04:48:48;99481.56;;;-0.41;100.00
59825;BME280;45703;50.898;6.054;2022-12-10T04:51:13;99494.28;;;-0.30;100.00
59825;BME280;45703;50.898;6.054;2022-12-10T04:53:38;99509.19;;;-0.30;100.00
59825;BME280;45703;50.898;6.054;2022-12-10T04:56:04;99511.31;;;-0.26;99.90
59825;BME280;45703;50.898;6.054;2022-12-10T04:58:31;99512.59;;;-0.22;99.79
59825;BME280;45703;50.898;6.054;2022-12-10T05:01:04;99519.31;;;-0.27;99.79
59825;BME280;45703;50.898;6.054;2022-12-10T05:03:30;99502.31;;;-0.31;100.00
59825;BME280;45703;50.898;6.054;2022-12-10T05:05:56;99512.94;;;-0.25;100.00
59825;BME280;45703;50.898;6.054;2022-12-10T05:08:25;99484.81;;;-0.39;100.00
59825;BME280;45703;50.898;6.054;2022-12-10T05:10:50;99513.44;;;-0.21;100.00
59825;BME280;45703;50.898;6.054;2022-12-10T05:13:15;99501.97;;;-0.28;100.00
59825;BME280;45703;50.898;6.054;2022-12-10T05:15:41;99496.56;;;-0.27;100.00
59825;BME280;45703;50.898;6.054;2022-12-10T05:18:06;99512.59;;;-0.22;100.00
59825;BME280;45703;50.898;6.054;2022-12-10T05:20:31;99512.25;;;-0.19;100.00
59825;BME280;45703;50.898;6.054;2022-12-10T05:22:57;99513.09;;;-0.18;100.00
59825;BME280;45703;50.898;6.054;2022-12-10T05:25:41;99505.69;;;-0.15;100.00
59825;BME280;45703;50.898;6.054;2022-12-10T05:28:19;99506.84;;;-0.17;100.00
59825;BME280;45703;50.898;6.054;2022-12-10T05:30:44;99494.88;;;-0.20;100.00
59825;BME280;45703;50.898;6.054;2022-12-10T05:33:10;99507.59;;;-0.09;100.00
59825;BME280;45703;50.898;6.054;2022-12-10T05:35:35;99503.19;;;-0.08;100.00
59825;BME280;45703;50.898;6.054;2022-12-10T05:38:00;99508.91;;;-0.05;100.00
59825;BME280;45703;50.898;6.054;2022-12-10T05:40:26;99500.88;;;-0.03;100.00
59825;BME280;45703;50.898;6.054;2022-12-10T05:42:51;99504.50;;;-0.04;100.00
59825;BME280;45703;50.898;6.054;2022-12-10T05:45:16;99497.59;;;-0.05;100.00
59825;BME280;45703;50.898;6.054;2022-12-10T05:47:42;99504.13;;;-0.02;100.00
59825;BME280;45703;50.898;6.054;2022-12-10T05:50:07;99508.69;;;0.04;100.00
59825;BME280;45703;50.898;6.054;2022-12-10T05:52:33;99502.31;;;-0.01;100.00
59825;BME280;45703;50.898;6.054;2022-12-10T05:54:58;99512.66;;;0.00;100.00
59825;BME280;45703;50.898;6.054;2022-12-10T05:57:23;99514.63;;;-0.02;99.99
59825;BME280;45703;50.898;6.054;2022-12-10T05:59:49;99517.09;;;0.00;100.00
59825;BME280;45703;50.898;6.054;2022-12-10T06:02:14;99512.66;;;0.00;100.00
59825;BME280;45703;50.898;6.054;2022-12-10T06:04:39;99512.66;;;0.00;100.00
59825;BME280;45703;50.898;6.054;2022-12-10T06:07:05;99522.81;;;0.03;100.00
59825;BME280;45703;50.898;6.054;2022-12-10T06:09:30;99511.03;;;-0.01;100.00
59825;BME280;45703;50.898;6.054;2022-12-10T06:11:55;99522.81;;;0.03;100.00
59825;BME280;45703;50.898;6.054;2022-12-10T06:14:21;99522.81;;;0.03;100.00
59825;BME280;45703;50.898;6.054;2022-12-10T06:16:46;99521.31;;;0.09;99.97
59825;BME280;45703;50.898;6.054;2022-12-10T06:19:11;99514.47;;;0.00;99.76
59825;BME280;45703;50.898;6.054;2022-12-10T06:21:37;99525.63;;;0.02;99.54
59825;BME280;45703;50.898;6.054;2022-12-10T06:24:02;99543.63;;;0.05;99.65
59825;BME280;45703;50.898;6.054;2022-12-10T06:26:28;99536.09;;;0.02;99.94
59825;BME280;45703;50.898;6.054;2022-12-10T06:28:54;99547.06;;;0.05;99.70
59825;BME280;45703;50.898;6.054;2022-12-10T06:31:20;99530.88;;;0.02;99.62
59825;BME280;45703;50.898;6.054;2022-12-10T06:33:46;99539.38;;;0.04;99.27
59825;BME280;45703;50.898;6.054;2022-12-10T06:36:14;99538.53;;;0.03;99.23
59825;BME280;45703;50.898;6.054;2022-12-10T06:38:40;99541.34;;;0.02;99.27
59825;BME280;45703;50.898;6.054;2022-12-10T06:41:07;99542.16;;;0.02;99.43
59825;BME280;45703;50.898;6.054;2022-12-10T06:43:33;99552.81;;;0.09;99.49
59825;BME280;45703;50.898;6.054;2022-12-10T06:46:00;99543.44;;;0.06;98.76
59825;BME280;45703;50.898;6.054;2022-12-10T06:48:28;99548.69;;;0.06;98.78
59825;BME280;45703;50.898;6.054;2022-12-10T06:50:55;99547.25;;;0.04;98.96
59825;BME280;45703;50.898;6.054;2022-12-10T06:53:20;99557.56;;;0.05;98.94
59825;BME280;45703;50.898;6.054;2022-12-10T06:55:46;99549.69;;;0.05;98.70
59825;BME280;45703;50.898;6.054;2022-12-10T06:58:11;99536.31;;;-0.07;98.74
59825;BME280;45703;50.898;6.054;2022-12-10T07:00:36;99548.41;;;0.01;98.76
59825;BME280;45703;50.898;6.054;2022-12-10T07:03:02;99563.78;;;0.04;98.74
59825;BME280;45703;50.898;6.054;2022-12-10T07:05:27;99570.03;;;0.03;98.69
59825;BME280;45703;50.898;6.054;2022-12-10T07:07:52;99581.81;;;0.07;98.71
59825;BME280;45703;50.898;6.054;2022-12-10T07:10:18;99577.25;;;0.01;98.64
59825;BME280;45703;50.898;6.054;2022-12-10T07:12:43;99577.59;;;-0.02;98.76
59825;BME280;45703;50.898;6.054;2022-12-10T07:15:09;99574.47;;;0.03;98.63
59825;BME280;45703;50.898;6.054;2022-12-10T07:17:34;99576.44;;;0.01;98.69
59825;BME280;45703;50.898;6.054;2022-12-10T07:20:00;99583.34;;;0.02;98.72
59825;BME280;45703;50.898;6.054;2022-12-10T07:22:25;99578.25;;;0.00;98.81
59825;BME280;45703;50.898;6.054;2022-12-10T07:24:50;99576.91;;;0.04;98.47
59825;BME280;45703;50.898;6.054;2022-12-10T07:27:16;99581.22;;;-0.03;98.41
59825;BME280;45703;50.898;6.054;2022-12-10T07:29:41;99576.47;;;-0.07;98.42
59825;BME280;45703;50.898;6.054;2022-12-10T07:32:07;99587.44;;;-0.03;98.69
59825;BME280;45703;50.898;6.054;2022-12-10T07:34:32;99588.09;;;-0.02;98.56
59825;BME280;45703;50.898;6.054;2022-12-10T07:36:57;99586.44;;;-0.03;98.76
59825;BME280;45703;50.898;6.054;2022-12-10T07:39:23;99593.34;;;-0.02;98.73
59825;BME280;45703;50.898;6.054;2022-12-10T07:41:50;99586.44;;;-0.03;98.72
59825;BME280;45703;50.898;6.054;2022-12-10T07:44:18;99586.78;;;-0.05;98.67
59825;BME280;45703;50.898;6.054;2022-12-10T07:46:44;99595.31;;;-0.03;98.71
59825;BME280;45703;50.898;6.054;2022-12-10T07:49:10;99597.75;;;-0.02;98.54
59825;BME280;45703;50.898;6.054;2022-12-10T07:51:35;99594.13;;;-0.01;98.78
59825;BME280;45703;50.898;6.054;2022-12-10T07:54:01;99587.78;;;-0.06;98.68
59825;BME280;45703;50.898;6.054;2022-12-10T07:56:26;99600.88;;;0.01;98.50
59825;BME280;45703;50.898;6.054;2022-12-10T07:58:52;99588.59;;;0.02;97.81
59825;BME280;45703;50.898;6.054;2022-12-10T08:01:24;99590.06;;;-0.03;98.17
59825;BME280;45703;50.898;6.054;2022-12-10T08:03:50;99588.78;;;-0.07;98.36
59825;BME280;45703;50.898;6.054;2022-12-10T08:06:18;99592.84;;;-0.05;98.45
59825;BME280;45703;50.898;6.054;2022-12-10T08:08:44;99587.25;;;-0.02;98.67
59825;BME280;45703;50.898;6.054;2022-12-10T08:11:11;99591.19;;;0.02;98.74
59825;BME280;45703;50.898;6.054;2022-12-10T08:13:38;99594.97;;;-0.01;98.73
59825;BME280;45703;50.898;6.054;2022-12-10T08:18:39;99593.66;;;0.03;98.75
59825;BME280;45703;50.898;6.054;2022-12-10T08:21:19;99603.50;;;0.01;98.71
59825;BME280;45703;50.898;6.054;2022-12-10T08:23:45;99602.69;;;0.01;98.90
59825;BME280;45703;50.898;6.054;2022-12-10T08:26:15;99609.88;;;-0.01;98.80
59825;BME280;45703;50.898;6.054;2022-12-10T08:28:41;99613.66;;;0.04;98.93
59825;BME280;45703;50.898;6.054;2022-12-10T08:31:08;99627.06;;;0.09;99.02
59825;BME280;45703;50.898;6.054;2022-12-10T08:33:35;99624.09;;;0.12;98.67
59825;BME280;45703;50.898;6.054;2022-12-10T08:36:03;99625.75;;;0.13;98.87
59825;BME280;45703;50.898;6.054;2022-12-10T08:38:29;99625.09;;;0.11;98.60
59825;BME280;45703;50.898;6.054;2022-12-10T08:40:55;99631.28;;;0.18;99.10
59825;BME280;45703;50.898;6.054;2022-12-10T08:43:20;99630.94;;;0.21;99.05
59825;BME280;45703;50.898;6.054;2022-12-10T08:45:46;99627.03;;;0.17;98.57
59825;BME280;45703;50.898;6.054;2022-12-10T08:48:12;99640.13;;;0.25;97.99
59825;BME280;45703;50.898;6.054;2022-12-10T08:50:37;99644.88;;;0.30;97.04
59825;BME280;45703;50.898;6.054;2022-12-10T08:53:03;99648.13;;;0.32;96.96
59825;BME280;45703;50.898;6.054;2022-12-10T08:55:28;99651.59;;;0.32;96.38
59825;BME280;45703;50.898;6.054;2022-12-10T08:57:53;99646.03;;;0.27;96.32
59825;BME280;45703;50.898;6.054;2022-12-10T09:00:19;99642.44;;;0.20;96.29
59825;BME280;45703;50.898;6.054;2022-12-10T09:02:45;99651.78;;;0.23;96.82
59825;BME280;45703;50.898;6.054;2022-12-10T09:05:11;99658.81;;;0.22;96.75
59825;BME280;45703;50.898;6.054;2022-12-10T09:07:37;99658.03;;;0.22;97.07
59825;BME280;45703;50.898;6.054;2022-12-10T09:10:03;99659.00;;;0.21;97.32
59825;BME280;45703;50.898;6.054;2022-12-10T09:12:28;99652.28;;;0.18;97.55
59825;BME280;45703;50.898;6.054;2022-12-10T09:14:54;99661.94;;;0.26;97.51
59825;BME280;45703;50.898;6.054;2022-12-10T09:17:19;99651.94;;;0.21;97.37
59825;BME280;45703;50.898;6.054;2022-12-10T09:19:45;99667.34;;;0.32;97.39
59825;BME280;45703;50.898;6.054;2022-12-10T09:22:10;99663.09;;;0.31;97.66
59825;BME280;45703;50.898;6.054;2022-12-10T09:24:35;99673.88;;;0.36;97.28
59825;BME280;45703;50.898;6.054;2022-12-10T09:27:02;99677.63;;;0.42;97.06
59825;BME280;45703;50.898;6.054;2022-12-10T09:29:27;99675.00;;;0.42;96.81
59825;BME280;45703;50.898;6.054;2022-12-10T09:31:53;99671.22;;;0.44;96.53
59825;BME280;45703;50.898;6.054;2022-12-10T09:34:18;99669.44;;;0.37;96.89
59825;BME280;45703;50.898;6.054;2022-12-10T09:36:45;99672.88;;;0.45;96.97
59825;BME280;45703;50.898;6.054;2022-12-10T09:39:10;99680.75;;;0.45;96.92
59825;BME280;45703;50.898;6.054;2022-12-10T09:41:39;99675.50;;;0.45;97.36
59825;BME280;45703;50.898;6.054;2022-12-10T09:44:21;99677.91;;;0.55;96.88
59825;BME280;45703;50.898;6.054;2022-12-10T09:46:56;99672.13;;;0.59;96.20
59825;BME280;45703;50.898;6.054;2022-12-10T09:49:49;99677.44;;;0.51;95.72
59825;BME280;45703;50.898;6.054;2022-12-10T09:52:22;99680.88;;;0.52;95.86
59825;BME280;45703;50.898;6.054;2022-12-10T09:54:57;99676.94;;;0.56;95.72
59825;BME280;45703;50.898;6.054;2022-12-10T09:57:37;99682.63;;;0.59;95.53
59825;BME280;45703;50.898;6.054;2022-12-10T10:00:29;99676.94;;;0.56;95.85
59825;BME280;45703;50.898;6.054;2022-12-10T10:02:57;99674.41;;;0.62;95.53
59825;BME280;45703;50.898;6.054;2022-12-10T10:05:35;99678.38;;;0.58;95.65
59825;BME280;45703;50.898;6.054;2022-12-10T10:08:06;99683.63;;;0.58;95.70
59825;BME280;45703;50.898;6.054;2022-12-10T10:10:39;99681.66;;;0.60;95.47
59825;BME280;45703;50.898;6.054;2022-12-10T10:15:36;99680.19;;;0.58;96.22
59825;BME280;45703;50.898;6.054;2022-12-10T10:18:08;99674.59;;;0.61;96.07
59825;BME280;45703;50.898;6.054;2022-12-10T10:20:36;99676.34;;;0.68;95.92
59825;BME280;45703;50.898;6.054;2022-12-10T10:23:01;99685.88;;;0.69;95.26
59825;BME280;45703;50.898;6.054;2022-12-10T10:25:27;99678.63;;;0.71;95.27
59825;BME280;45703;50.898;6.054;2022-12-10T10:27:55;99677.19;;;0.69;95.10
59825;BME280;45703;50.898;6.054;2022-12-10T10:30:22;99683.94;;;0.63;95.30
59825;BME280;45703;50.898;6.054;2022-12-10T10:32:53;99682.59;;;0.67;95.26
59825;BME280;45703;50.898;6.054;2022-12-10T10:35:49;99671.22;;;0.75;95.26
59825;BME280;45703;50.898;6.054;2022-12-10T10:38:23;99666.53;;;0.62;95.31
59825;BME280;45703;50.898;6.054;2022-12-10T10:40:59;99665.50;;;0.71;95.51
59825;BME280;45703;50.898;6.054;2022-12-10T10:43:27;99664.84;;;0.69;95.67
59825;BME280;45703;50.898;6.054;2022-12-10T10:46:02;99667.13;;;0.72;95.82
59825;BME280;45703;50.898;6.054;2022-12-10T10:48:30;99665.16;;;0.74;95.89
59825;BME280;45703;50.898;6.054;2022-12-10T10:51:15;99670.72;;;0.79;95.25
59825;BME280;45703;50.898;6.054;2022-12-10T10:53:45;99671.81;;;0.85;95.16
59825;BME280;45703;50.898;6.054;2022-12-10T10:56:46;99664.13;;;0.83;95.16
59825;BME280;45703;50.898;6.054;2022-12-10T11:01:45;99673.16;;;0.81;95.19
59825;BME280;45703;50.898;6.054;2022-12-10T11:04:13;99674.66;;;0.83;95.04
59825;BME280;45703;50.898;6.054;2022-12-10T11:06:43;99676.63;;;0.81;95.70
59825;BME280;45703;50.898;6.054;2022-12-10T11:09:21;99686.44;;;0.87;95.80
59825;BME280;45703;50.898;6.054;2022-12-10T11:11:52;99680.00;;;0.90;95.43
59825;BME280;45703;50.898;6.054;2022-12-10T11:14:44;99679.38;;;0.88;95.15
59825;BME280;45703;50.898;6.054;2022-12-10T11:19:41;99654.00;;;0.72;95.49
59825;BME280;45703;50.898;6.054;2022-12-10T11:22:20;99676.03;;;0.94;95.29
59825;BME280;45703;50.898;6.054;2022-12-10T11:24:47;99664.72;;;0.93;94.12
59825;BME280;45703;50.898;6.054;2022-12-10T11:27:47;99673.81;;;0.83;94.36
59825;BME280;45703;50.898;6.054;2022-12-10T11:30:25;99677.56;;;0.88;95.09
59825;BME280;45703;50.898;6.054;2022-12-10T11:36:21;99667.41;;;0.85;95.42
59825;BME280;45703;50.898;6.054;2022-12-10T11:39:04;99672.19;;;0.82;95.55
59825;BME280;45703;50.898;6.054;2022-12-10T11:42:13;99674.94;;;0.88;96.00
59825;BME280;45703;50.898;6.054;2022-12-10T11:47:52;99669.34;;;0.91;95.47
59825;BME280;45703;50.898;6.054;2022-12-10T11:50:31;99661.47;;;0.91;95.81
59825;BME280;45703;50.898;6.054;2022-12-10T11:55:53;99659.41;;;1.01;95.23
59825;BME280;45703;50.898;6.054;2022-12-10T12:09:21;99665.78;;;1.07;94.28
59825;BME280;45703;50.898;6.054;2022-12-10T12:12:05;99664.66;;;1.01;93.90
59825;BME280;45703;50.898;6.054;2022-12-10T12:14:43;99666.81;;;0.98;94.61
59825;BME280;45703;50.898;6.054;2022-12-10T12:17:22;99664.53;;;0.95;94.79
59825;BME280;45703;50.898;6.054;2022-12-10T12:22:25;99664.88;;;0.92;95.25
59825;BME280;45703;50.898;6.054;2022-12-10T12:24:55;99659.81;;;0.90;95.77
59825;BME280;45703;50.898;6.054;2022-12-10T12:27:35;99655.94;;;1.01;95.80
59825;BME280;45703;50.898;6.054;2022-12-10T12:30:22;99664.03;;;0.99;95.46
59825;BME280;45703;50.898;6.054;2022-12-10T12:35:47;99663.09;;;0.92;95.25
59825;BME280;45703;50.898;6.054;2022-12-10T12:43:39;99673.53;;;1.00;96.41
59825;BME280;45703;50.898;6.054;2022-12-10T12:46:33;99677.75;;;1.09;96.03
59825;BME280;45703;50.898;6.054;2022-12-10T12:49:48;99673.47;;;1.08;96.22
59825;BME280;45703;50.898;6.054;2022-12-10T12:54:43;99674.41;;;1.15;95.39
59825;BME280;45703;50.898;6.054;2022-12-10T12:57:30;99667.06;;;1.11;94.56
59825;BME280;45703;50.898;6.054;2022-12-10T13:00:05;99671.22;;;1.05;94.50
59825;BME280;45703;50.898;6.054;2022-12-10T13:05:31;99666.59;;;1.07;94.84
59825;BME280;45703;50.898;6.054;2022-12-10T13:08:23;99678.38;;;1.11;94.74
59825;BME280;45703;50.898;6.054;2022-12-10T13:13:39;99676.03;;;0.94;94.91
59825;BME280;45703;50.898;6.054;2022-12-10T13:32:17;99685.19;;;1.06;95.34
59825;BME280;45703;50.898;6.054;2022-12-10T13:34:43;99680.44;;;1.01;95.19
59825;BME280;45703;50.898;6.054;2022-12-10T13:37:16;99681.56;;;1.07;94.45
59825;BME280;45703;50.898;6.054;2022-12-10T13:39:58;99681.53;;;0.84;94.82
59825;BME280;45703;50.898;6.054;2022-12-10T13:42:29;99693.44;;;0.95;94.64
59825;BME280;45703;50.898;6.054;2022-12-10T13:47:51;99695.81;;;0.82;95.54
59825;BME280;45703;50.898;6.054;2022-12-10T13:53:09;99698.28;;;0.83;95.98
59825;BME280;45703;50.898;6.054;2022-12-10T13:55:59;99700.28;;;0.73;96.35
59825;BME280;45703;50.898;6.054;2022-12-10T13:58:45;99704.53;;;0.82;96.79
59825;BME280;45703;50.898;6.054;2022-12-10T14:01:40;99703.00;;;0.88;96.44
59825;BME280;45703;50.898;6.054;2022-12-10T14:06:53;99698.63;;;0.80;96.43
59825;BME280;45703;50.898;6.054;2022-12-10T14:09:25;99710.13;;;0.79;96.33
59825;BME280;45703;50.898;6.054;2022-12-10T14:11:58;99695.38;;;0.70;96.63
59825;BME280;45703;50.898;6.054;2022-12-10T14:14:47;99709.66;;;0.76;96.92
59825;BME280;45703;50.898;6.054;2022-12-10T14:17:18;99710.13;;;0.79;97.23
59825;BME280;45703;50.898;6.054;2022-12-10T14:19:46;99712.75;;;0.79;96.99
59825;BME280;45703;50.898;6.054;2022-12-10T14:22:21;99717.03;;;0.80;96.96
59825;BME280;45703;50.898;6.054;2022-12-10T14:24:50;99707.28;;;0.89;96.79
59825;BME280;45703;50.898;6.054;2022-12-10T14:29:49;99713.41;;;0.81;97.04
59825;BME280;45703;50.898;6.054;2022-12-10T14:32:17;99711.78;;;0.80;97.01
59825;BME280;45703;50.898;6.054;2022-12-10T14:34:52;99712.13;;;0.77;97.39
59825;BME280;45703;50.898;6.054;2022-12-10T14:37:25;99716.19;;;0.80;97.64
59825;BME280;45703;50.898;6.054;2022-12-10T14:39:52;99723.91;;;0.81;97.65
59825;BME280;45703;50.898;6.054;2022-12-10T14:42:18;99714.41;;;0.80;97.53
59825;BME280;45703;50.898;6.054;2022-12-10T14:44:44;99727.19;;;0.83;97.67
59825;BME280;45703;50.898;6.054;2022-12-10T14:47:19;99725.22;;;0.85;97.74